createdAt,value
2023-02-21T00:00:35.931Z,102132.34
2023-02-21T00:05:56.803Z,102129.16
2023-02-21T00:11:17.378Z,102131.84
2023-02-21T00:16:39.432Z,102135.09
2023-02-21T00:22:00.023Z,102142.34
2023-02-21T00:27:20.609Z,102134.59
2023-02-21T00:32:42.689Z,102136.41
2023-02-21T00:38:03.294Z,102143.25
2023-02-21T00:43:24.001Z,102141.25
2023-02-21T00:48:46.343Z,102129.34
2023-02-21T00:54:06.508Z,102130.06
2023-02-21T00:59:26.815Z,102118.38
2023-02-21T01:04:48.762Z,102119.59
2023-02-21T01:10:08.976Z,102096.03
2023-02-21T01:15:29.647Z,102104.88
2023-02-21T01:20:52.833Z,102110.03
2023-02-21T01:26:13.243Z,102115.56
2023-02-21T01:31:36.364Z,102109.50
2023-02-21T01:37:00.855Z,102104.75
2023-02-21T01:42:21.484Z,102097.03
2023-02-21T01:47:42.524Z,102090.88
2023-02-21T01:53:06.675Z,102087.16
2023-02-21T01:58:28.021Z,102091.66
2023-02-21T02:03:50.025Z,102091.66
2023-02-21T02:09:12.313Z,102094.09
2023-02-21T02:14:33.988Z,102073.06
2023-02-21T02:20:12.457Z,102070.63
2023-02-21T02:25:31.101Z,102066.31
2023-02-21T02:30:53.966Z,102061.88
2023-02-21T02:36:05.051Z,102051.19
2023-02-21T02:41:14.662Z,102053.72
2023-02-21T02:46:23.092Z,102059.47
2023-02-21T02:51:28.919Z,102059.28
2023-02-21T02:56:36.962Z,102055.03
2023-02-21T03:02:01.550Z,102046.25
2023-02-21T03:07:16.775Z,102061.78
2023-02-21T03:12:34.188Z,102052.91
2023-02-21T03:17:42.007Z,102056.31
2023-02-21T03:22:47.975Z,102069.75
2023-02-21T03:27:54.724Z,102046.19
2023-02-21T03:33:03.923Z,102050.72
2023-02-21T03:38:08.565Z,102043.34
2023-02-21T03:43:11.995Z,102055.81
2023-02-21T03:48:31.870Z,102057.34
2023-02-21T03:53:43.319Z,102044.97
2023-02-21T03:58:48.154Z,102052.53
2023-02-21T04:03:51.864Z,102049.00
2023-02-21T04:08:56.327Z,102041.84
2023-02-21T04:14:01.421Z,102045.06
2023-02-21T04:19:04.900Z,102040.03
2023-02-21T04:24:09.955Z,102038.31
2023-02-21T04:29:13.343Z,102048.78
2023-02-21T04:34:17.032Z,102037.50
2023-02-21T04:39:23.150Z,102033.81
2023-02-21T04:44:26.801Z,102040.81
2023-02-21T04:49:29.789Z,102034.59
2023-02-21T04:54:34.062Z,102036.22
2023-02-21T04:59:37.545Z,102022.22
2023-02-21T05:04:42.523Z,102016.06
2023-02-21T05:09:47.103Z,102015.47
2023-02-21T05:14:50.148Z,102011.25
2023-02-21T05:19:53.218Z,102013.16
2023-02-21T05:24:57.597Z,102013.06
2023-02-21T05:30:00.738Z,102013.06
2023-02-21T05:35:03.848Z,102010.53
2023-02-21T05:40:12.081Z,102005.28
2023-02-21T05:45:15.092Z,102008.41
2023-02-21T05:50:18.225Z,102018.28
2023-02-21T05:55:22.737Z,102014.66
2023-02-21T06:00:28.305Z,102011.03
2023-02-21T06:05:31.194Z,101997.25
2023-02-21T06:10:35.531Z,102019.81
2023-02-21T06:15:38.582Z,102025.94
2023-02-21T06:20:41.661Z,102023.13
2023-02-21T06:25:46.008Z,102022.00
2023-02-21T06:30:49.053Z,102015.66
2023-02-21T06:35:52.171Z,102022.22
2023-02-21T06:40:56.602Z,102032.69
2023-02-21T06:45:59.697Z,102030.78
2023-02-21T06:51:02.837Z,102023.13
2023-02-21T06:56:07.989Z,102052.00
2023-02-21T07:01:11.070Z,102032.69
2023-02-21T07:06:14.489Z,102028.38
2023-02-21T07:11:20.144Z,102053.91
2023-02-21T07:16:25.136Z,102037.50
2023-02-21T07:21:28.845Z,102036.00
2023-02-21T07:26:33.277Z,102039.59
2023-02-21T07:31:36.375Z,102042.44
2023-02-21T07:36:40.366Z,102045.88
2023-02-21T07:41:44.844Z,102053.09
2023-02-21T07:46:51.188Z,102050.50
2023-02-21T07:51:54.178Z,102039.50
2023-02-21T07:56:58.705Z,102045.94
2023-02-21T08:02:02.531Z,102037.41
2023-02-21T08:07:06.416Z,102041.22
2023-02-21T08:12:10.790Z,102031.97
2023-02-21T08:17:14.158Z,102041.63
2023-02-21T08:22:17.192Z,102040.41
2023-02-21T08:27:21.529Z,102050.78
2023-02-21T08:32:25.131Z,102055.91
2023-02-21T08:37:32.982Z,102044.63
2023-02-21T08:42:37.315Z,102060.56
2023-02-21T08:47:40.456Z,102048.25
2023-02-21T08:52:46.758Z,102050.06
2023-02-21T08:57:52.917Z,102054.88
2023-02-21T09:02:56.545Z,102039.47
2023-02-21T09:08:02.118Z,102040.19
2023-02-21T09:13:09.032Z,102031.16
2023-02-21T09:18:13.597Z,102027.91
2023-02-21T09:23:18.397Z,102024.47
2023-02-21T09:28:23.511Z,102022.84
2023-02-21T09:33:26.514Z,102031.09
2023-02-21T09:38:29.544Z,102035.03
2023-02-21T09:43:37.147Z,102027.09
2023-02-21T09:48:42.144Z,102024.38
2023-02-21T09:53:48.164Z,102024.66
2023-02-21T09:58:52.596Z,102022.50
2023-02-21T10:04:06.807Z,102012.03
2023-02-21T10:09:22.392Z,102011.03
2023-02-21T10:14:34.601Z,102001.47
2023-02-21T10:19:41.872Z,102012.34
2023-02-21T10:24:45.038Z,102023.47
2023-02-21T10:29:55.482Z,102014.19
2023-02-21T10:34:59.542Z,102015.09
2023-02-21T10:40:09.149Z,102007.84
2023-02-21T10:45:17.516Z,102004.59
2023-02-21T10:50:38.947Z,102011.59
2023-02-21T10:55:42.023Z,102013.50
2023-02-21T11:00:48.638Z,102006.69
2023-02-21T11:05:52.905Z,102000.56
2023-02-21T11:10:56.821Z,102010.94
2023-02-21T11:16:13.023Z,101997.84
2023-02-21T11:21:18.013Z,101997.22
2023-02-21T11:26:21.010Z,101989.34
2023-02-21T11:31:30.142Z,101976.59
2023-02-21T11:36:35.773Z,101976.25
2023-02-21T11:41:47.468Z,101974.72
2023-02-21T11:46:59.316Z,101975.31
2023-02-21T11:52:07.720Z,101973.31
2023-02-21T11:57:19.210Z,101962.09
2023-02-21T12:02:48.554Z,101959.38
2023-02-21T12:08:01.384Z,101961.34
2023-02-21T12:13:15.645Z,101960.91
2023-02-21T12:18:54.229Z,101959.03
2023-02-21T12:24:11.583Z,101949.88
2023-02-21T12:29:36.401Z,101947.19
2023-02-21T12:34:51.831Z,101948.38
2023-02-21T12:40:11.172Z,101937.81
2023-02-21T12:45:41.128Z,101939.31
2023-02-21T12:50:49.935Z,101933.69
2023-02-21T12:56:02.602Z,101922.53
2023-02-21T13:01:11.967Z,101918.75
2023-02-21T13:06:22.295Z,101919.38
2023-02-21T13:11:32.882Z,101921.91
2023-02-21T13:16:36.160Z,101914.28
2023-02-21T13:21:52.598Z,101913.88
2023-02-21T13:27:22.242Z,101912.25
2023-02-21T13:32:25.545Z,101903.84
2023-02-21T13:37:32.066Z,101902.00
2023-02-21T13:42:39.683Z,101896.56
2023-02-21T13:48:30.340Z,101900.78
2023-02-21T13:53:54.380Z,101899.84
2023-02-21T13:59:34.232Z,101883.25
2023-02-21T14:05:03.830Z,101883.31
2023-02-21T14:10:16.068Z,101876.41
2023-02-21T14:15:22.388Z,101876.66
2023-02-21T14:20:27.455Z,101878.09
2023-02-21T14:25:37.282Z,101880.22
2023-02-21T14:30:41.862Z,101872.00
2023-02-21T14:35:52.251Z,101868.22
2023-02-21T14:41:04.974Z,101861.50
2023-02-21T14:46:33.838Z,101859.63
2023-02-21T14:52:17.728Z,101859.88
2023-02-21T14:58:02.466Z,101855.50
2023-02-21T15:03:17.376Z,101850.09
2023-02-21T15:08:23.747Z,101852.97
2023-02-21T15:13:30.518Z,101851.72
2023-02-21T15:18:36.607Z,101853.38
2023-02-21T15:23:42.046Z,101847.84
2023-02-21T15:28:45.704Z,101846.13
2023-02-21T15:33:53.432Z,101836.91
2023-02-21T15:39:05.748Z,101840.16
2023-02-21T15:44:12.586Z,101848.84
2023-02-21T15:49:22.329Z,101835.75
2023-02-21T15:54:29.982Z,101833.13
2023-02-21T15:59:33.789Z,101835.94
2023-02-21T16:04:40.114Z,101830.69
2023-02-21T16:09:47.687Z,101833.38
2023-02-21T16:14:59.123Z,101831.06
2023-02-21T16:20:13.249Z,101830.44
2023-02-21T16:25:20.551Z,101826.34
2023-02-21T16:30:25.830Z,101826.16
2023-02-21T16:35:30.796Z,101808.28
2023-02-21T16:40:35.646Z,101827.44
2023-02-21T16:45:38.591Z,101815.13
2023-02-21T16:50:44.137Z,101819.22
2023-02-21T16:55:47.563Z,101816.59
2023-02-21T17:00:52.235Z,101820.72
2023-02-21T17:05:58.226Z,101808.44
2023-02-21T17:11:01.265Z,101814.47
2023-02-21T17:16:04.437Z,101796.78
2023-02-21T17:21:08.978Z,101808.25
2023-02-21T17:26:12.457Z,101811.28
2023-02-21T17:31:18.889Z,101806.06
2023-02-21T17:36:25.654Z,101810.94
2023-02-21T17:41:29.158Z,101806.50
2023-02-21T17:46:32.518Z,101808.50
2023-02-21T17:51:36.839Z,101807.56
2023-02-21T17:56:39.840Z,101808.38
2023-02-21T18:01:43.357Z,101818.25
2023-02-21T18:06:47.806Z,101813.63
2023-02-21T18:11:51.789Z,101812.09
2023-02-21T18:16:56.449Z,101805.16
2023-02-21T18:22:06.151Z,101796.31
2023-02-21T18:27:09.453Z,101799.97
2023-02-21T18:32:12.805Z,101808.56
2023-02-21T18:37:17.604Z,101803.13
2023-02-21T18:42:21.665Z,101782.84
2023-02-21T18:47:26.142Z,101784.16
2023-02-21T18:52:30.775Z,101782.66
2023-02-21T18:57:34.300Z,101778.03
2023-02-21T19:02:37.824Z,101771.00
2023-02-21T19:07:43.188Z,101760.59
2023-02-21T19:12:46.172Z,101758.63
2023-02-21T19:17:49.647Z,101755.91
2023-02-21T19:22:55.802Z,101759.25
2023-02-21T19:28:01.378Z,101759.97
2023-02-21T19:33:05.707Z,101741.25
2023-02-21T19:38:10.366Z,101758.84
2023-02-21T19:43:14.723Z,101744.53
2023-02-21T19:48:17.945Z,101761.22
2023-02-21T19:53:22.862Z,101761.00
2023-02-21T19:58:25.885Z,101755.59
2023-02-21T20:03:28.968Z,101748.53
2023-02-21T20:08:33.391Z,101753.78
2023-02-21T20:13:37.014Z,101748.34
2023-02-21T20:18:40.042Z,101741.84
2023-02-21T20:23:44.425Z,101737.41
2023-02-21T20:28:48.811Z,101757.81
2023-02-21T20:33:51.895Z,101749.59
2023-02-21T20:38:56.472Z,101751.22
2023-02-21T20:44:00.257Z,101755.53
2023-02-21T20:49:03.678Z,101760.56
2023-02-21T20:54:11.099Z,101759.50
2023-02-21T20:59:17.602Z,101748.47
2023-02-21T21:04:23.613Z,101745.72
2023-02-21T21:09:34.301Z,101750.09
2023-02-21T21:14:41.633Z,101743.03
2023-02-21T21:19:46.506Z,101747.97
2023-02-21T21:24:52.010Z,101739.03
2023-02-21T21:29:55.059Z,101731.00
2023-02-21T21:34:59.132Z,101723.75
2023-02-21T21:40:16.090Z,101718.00
2023-02-21T21:45:22.640Z,101714.91
2023-02-21T21:50:27.954Z,101712.81
2023-02-21T21:55:35.556Z,101697.44
2023-02-21T22:00:42.193Z,101688.19
2023-02-21T22:05:45.590Z,101680.19
2023-02-21T22:10:51.225Z,101671.31
2023-02-21T22:15:55.609Z,101665.69
2023-02-21T22:20:59.282Z,101671.56
2023-02-21T22:26:03.694Z,101670.56
2023-02-21T22:31:09.390Z,101658.09
2023-02-21T22:36:14.963Z,101645.03
2023-02-21T22:41:25.659Z,101637.69
2023-02-21T22:46:29.965Z,101624.63
2023-02-21T22:51:33.474Z,101612.78
2023-02-21T22:56:50.582Z,101612.09
2023-02-21T23:01:54.292Z,101602.34
2023-02-21T23:06:59.219Z,101597.72
2023-02-21T23:12:04.593Z,101606.56
2023-02-21T23:17:07.672Z,101599.34
2023-02-21T23:22:11.216Z,101596.34
2023-02-21T23:27:15.669Z,101592.53
2023-02-21T23:32:18.597Z,101597.56
2023-02-21T23:37:22.112Z,101598.28
2023-02-21T23:42:26.448Z,101596.28
2023-02-21T23:47:31.836Z,101600.41
2023-02-21T23:52:34.939Z,101593.16
2023-02-21T23:57:42.956Z,101595.69
